sensor_id;sensor_type;location;lat;lon;timestamp;P1;durP1;ratioP1;P2;durP2;ratioP2
34960;SDS011;30789;52.030;7.110;2024-02-15T00:01:19;19.55;;;14.20;;
34960;SDS011;30789;52.030;7.110;2024-02-15T00:03:46;18.00;;;13.15;;
34960;SDS011;30789;52.030;7.110;2024-02-15T00:06:13;16.77;;;13.20;;
34960;SDS011;30789;52.030;7.110;2024-02-15T00:08:40;20.75;;;13.38;;
34960;SDS011;30789;52.030;7.110;2024-02-15T00:11:06;14.55;;;12.40;;
34960;SDS011;30789;52.030;7.110;2024-02-15T00:13:34;14.05;;;11.75;;
34960;SDS011;30789;52.030;7.110;2024-02-15T00:16:01;15.43;;;12.82;;
34960;SDS011;30789;52.030;7.110;2024-02-15T00:18:31;14.32;;;11.43;;
34960;SDS011;30789;52.030;7.110;2024-02-15T00:20:57;15.27;;;11.77;;
34960;SDS011;30789;52.030;7.110;2024-02-15T00:23:25;13.32;;;11.30;;
34960;SDS011;30789;52.030;7.110;2024-02-15T00:25:52;13.02;;;11.63;;
34960;SDS011;30789;52.030;7.110;2024-02-15T00:28:18;12.40;;;10.75;;
34960;SDS011;30789;52.030;7.110;2024-02-15T00:30:46;11.70;;;10.55;;
34960;SDS011;30789;52.030;7.110;2024-02-15T00:33:12;14.13;;;11.00;;
34960;SDS011;30789;52.030;7.110;2024-02-15T00:35:40;12.88;;;10.68;;
34960;SDS011;30789;52.030;7.110;2024-02-15T00:38:07;13.45;;;11.18;;
34960;SDS011;30789;52.030;7.110;2024-02-15T00:40:34;12.70;;;10.95;;
34960;SDS011;30789;52.030;7.110;2024-02-15T00:43:01;12.50;;;10.57;;
34960;SDS011;30789;52.030;7.110;2024-02-15T00:45:27;12.75;;;10.57;;
34960;SDS011;30789;52.030;7.110;2024-02-15T00:47:54;16.20;;;11.40;;
34960;SDS011;30789;52.030;7.110;2024-02-15T00:50:21;12.32;;;10.73;;
34960;SDS011;30789;52.030;7.110;2024-02-15T00:52:49;12.77;;;10.88;;
34960;SDS011;30789;52.030;7.110;2024-02-15T00:55:16;14.55;;;11.07;;
34960;SDS011;30789;52.030;7.110;2024-02-15T00:57:42;14.88;;;11.23;;
34960;SDS011;30789;52.030;7.110;2024-02-15T01:00:09;12.80;;;11.35;;
34960;SDS011;30789;52.030;7.110;2024-02-15T01:02:38;15.18;;;12.90;;
34960;SDS011;30789;52.030;7.110;2024-02-15T01:05:04;13.70;;;11.25;;
34960;SDS011;30789;52.030;7.110;2024-02-15T01:07:31;13.77;;;11.32;;
34960;SDS011;30789;52.030;7.110;2024-02-15T01:09:59;14.45;;;12.60;;
34960;SDS011;30789;52.030;7.110;2024-02-15T01:12:26;13.57;;;11.48;;
34960;SDS011;30789;52.030;7.110;2024-02-15T01:14:53;13.40;;;11.43;;
34960;SDS011;30789;52.030;7.110;2024-02-15T01:17:20;14.88;;;11.02;;
34960;SDS011;30789;52.030;7.110;2024-02-15T01:19:47;13.32;;;11.93;;
34960;SDS011;30789;52.030;7.110;2024-02-15T01:22:14;13.05;;;11.63;;
34960;SDS011;30789;52.030;7.110;2024-02-15T01:24:40;15.82;;;11.20;;
34960;SDS011;30789;52.030;7.110;2024-02-15T01:27:08;14.00;;;12.15;;
34960;SDS011;30789;52.030;7.110;2024-02-15T01:29:35;14.25;;;11.95;;
34960;SDS011;30789;52.030;7.110;2024-02-15T01:32:02;13.38;;;10.93;;
34960;SDS011;30789;52.030;7.110;2024-02-15T01:34:31;14.60;;;11.68;;
34960;SDS011;30789;52.030;7.110;2024-02-15T01:36:58;14.73;;;11.52;;
34960;SDS011;30789;52.030;7.110;2024-02-15T01:39:25;13.63;;;11.65;;
34960;SDS011;30789;52.030;7.110;2024-02-15T01:41:52;14.77;;;12.18;;
34960;SDS011;30789;52.030;7.110;2024-02-15T01:44:25;19.63;;;12.60;;
34960;SDS011;30789;52.030;7.110;2024-02-15T01:46:52;13.97;;;12.23;;
34960;SDS011;30789;52.030;7.110;2024-02-15T01:49:19;16.15;;;12.63;;
34960;SDS011;30789;52.030;7.110;2024-02-15T01:51:47;15.77;;;13.73;;
34960;SDS011;30789;52.030;7.110;2024-02-15T01:54:15;18.77;;;12.82;;
34960;SDS011;30789;52.030;7.110;2024-02-15T01:56:42;19.73;;;13.32;;
34960;SDS011;30789;52.030;7.110;2024-02-15T01:59:10;16.02;;;13.70;;
34960;SDS011;30789;52.030;7.110;2024-02-15T02:01:39;17.17;;;13.65;;
34960;SDS011;30789;52.030;7.110;2024-02-15T02:04:08;20.85;;;13.73;;
34960;SDS011;30789;52.030;7.110;2024-02-15T02:06:36;15.70;;;13.32;;
34960;SDS011;30789;52.030;7.110;2024-02-15T02:09:03;21.23;;;15.02;;
34960;SDS011;30789;52.030;7.110;2024-02-15T02:11:30;17.90;;;14.30;;
34960;SDS011;30789;52.030;7.110;2024-02-15T02:13:57;17.50;;;14.60;;
34960;SDS011;30789;52.030;7.110;2024-02-15T02:16:24;15.82;;;13.32;;
34960;SDS011;30789;52.030;7.110;2024-02-15T02:18:52;19.23;;;13.68;;
34960;SDS011;30789;52.030;7.110;2024-02-15T02:21:20;17.65;;;13.82;;
34960;SDS011;30789;52.030;7.110;2024-02-15T02:23:48;18.50;;;14.18;;
34960;SDS011;30789;52.030;7.110;2024-02-15T02:26:21;17.15;;;13.70;;
34960;SDS011;30789;52.030;7.110;2024-02-15T02:28:48;19.08;;;13.00;;
34960;SDS011;30789;52.030;7.110;2024-02-15T02:31:15;20.45;;;13.88;;
34960;SDS011;30789;52.030;7.110;2024-02-15T02:33:42;17.20;;;13.23;;
34960;SDS011;30789;52.030;7.110;2024-02-15T02:36:14;18.33;;;13.85;;
34960;SDS011;30789;52.030;7.110;2024-02-15T02:38:41;18.70;;;13.90;;
34960;SDS011;30789;52.030;7.110;2024-02-15T02:41:11;20.80;;;14.25;;
34960;SDS011;30789;52.030;7.110;2024-02-15T02:43:40;16.88;;;14.05;;
34960;SDS011;30789;52.030;7.110;2024-02-15T02:46:08;19.42;;;14.05;;
34960;SDS011;30789;52.030;7.110;2024-02-15T02:48:36;22.55;;;15.13;;
34960;SDS011;30789;52.030;7.110;2024-02-15T02:51:03;20.80;;;14.95;;
34960;SDS011;30789;52.030;7.110;2024-02-15T02:53:30;20.95;;;15.77;;
34960;SDS011;30789;52.030;7.110;2024-02-15T02:55:57;20.00;;;15.60;;
34960;SDS011;30789;52.030;7.110;2024-02-15T02:58:24;24.02;;;15.50;;
34960;SDS011;30789;52.030;7.110;2024-02-15T03:00:52;25.63;;;15.43;;
34960;SDS011;30789;52.030;7.110;2024-02-15T03:03:18;20.60;;;14.38;;
34960;SDS011;30789;52.030;7.110;2024-02-15T03:05:45;22.38;;;14.20;;
34960;SDS011;30789;52.030;7.110;2024-02-15T03:08:12;18.98;;;14.98;;
34960;SDS011;30789;52.030;7.110;2024-02-15T03:10:39;23.70;;;14.77;;
34960;SDS011;30789;52.030;7.110;2024-02-15T03:13:05;18.45;;;14.43;;
34960;SDS011;30789;52.030;7.110;2024-02-15T03:15:32;19.73;;;14.30;;
34960;SDS011;30789;52.030;7.110;2024-02-15T03:18:01;29.65;;;15.63;;
34960;SDS011;30789;52.030;7.110;2024-02-15T03:20:32;22.95;;;14.15;;
34960;SDS011;30789;52.030;7.110;2024-02-15T03:22:59;21.40;;;14.02;;
34960;SDS011;30789;52.030;7.110;2024-02-15T03:25:28;23.45;;;15.18;;
34960;SDS011;30789;52.030;7.110;2024-02-15T03:27:56;26.77;;;15.82;;
34960;SDS011;30789;52.030;7.110;2024-02-15T03:30:24;24.85;;;14.88;;
34960;SDS011;30789;52.030;7.110;2024-02-15T03:32:51;25.25;;;16.02;;
34960;SDS011;30789;52.030;7.110;2024-02-15T03:35:20;23.42;;;14.65;;
34960;SDS011;30789;52.030;7.110;2024-02-15T03:37:47;21.88;;;15.63;;
34960;SDS011;30789;52.030;7.110;2024-02-15T03:40:16;24.98;;;15.13;;
34960;SDS011;30789;52.030;7.110;2024-02-15T03:42:43;22.63;;;15.25;;
34960;SDS011;30789;52.030;7.110;2024-02-15T03:45:09;24.45;;;14.43;;
34960;SDS011;30789;52.030;7.110;2024-02-15T03:47:36;23.38;;;13.98;;
34960;SDS011;30789;52.030;7.110;2024-02-15T03:50:03;19.27;;;13.27;;
34960;SDS011;30789;52.030;7.110;2024-02-15T03:52:32;18.33;;;12.00;;
34960;SDS011;30789;52.030;7.110;2024-02-15T03:55:00;18.67;;;11.43;;
34960;SDS011;30789;52.030;7.110;2024-02-15T03:57:27;20.38;;;12.77;;
34960;SDS011;30789;52.030;7.110;2024-02-15T03:59:54;18.70;;;11.27;;
34960;SDS011;30789;52.030;7.110;2024-02-15T04:02:22;14.40;;;10.50;;
34960;SDS011;30789;52.030;7.110;2024-02-15T04:04:52;19.50;;;10.27;;
34960;SDS011;30789;52.030;7.110;2024-02-15T04:07:19;20.00;;;10.75;;
34960;SDS011;30789;52.030;7.110;2024-02-15T04:09:48;17.58;;;10.75;;
34960;SDS011;30789;52.030;7.110;2024-02-15T04:12:15;14.18;;;9.70;;
34960;SDS011;30789;52.030;7.110;2024-02-15T04:14:43;19.92;;;10.02;;
34960;SDS011;30789;52.030;7.110;2024-02-15T04:17:10;19.40;;;9.55;;
34960;SDS011;30789;52.030;7.110;2024-02-15T04:19:39;15.98;;;9.70;;
34960;SDS011;30789;52.030;7.110;2024-02-15T04:22:05;17.13;;;10.13;;
34960;SDS011;30789;52.030;7.110;2024-02-15T04:24:32;14.98;;;9.70;;
34960;SDS011;30789;52.030;7.110;2024-02-15T04:27:01;16.67;;;8.95;;
34960;SDS011;30789;52.030;7.110;2024-02-15T04:29:27;17.73;;;9.15;;
34960;SDS011;30789;52.030;7.110;2024-02-15T04:31:54;18.42;;;8.77;;
34960;SDS011;30789;52.030;7.110;2024-02-15T04:34:21;21.02;;;8.45;;
34960;SDS011;30789;52.030;7.110;2024-02-15T04:36:48;17.90;;;9.13;;
34960;SDS011;30789;52.030;7.110;2024-02-15T04:39:16;21.27;;;8.65;;
34960;SDS011;30789;52.030;7.110;2024-02-15T04:41:49;18.05;;;9.20;;
34960;SDS011;30789;52.030;7.110;2024-02-15T04:44:17;17.75;;;8.50;;
34960;SDS011;30789;52.030;7.110;2024-02-15T04:46:45;14.63;;;8.77;;
34960;SDS011;30789;52.030;7.110;2024-02-15T04:49:12;19.88;;;8.90;;
34960;SDS011;30789;52.030;7.110;2024-02-15T04:51:39;15.45;;;8.30;;
34960;SDS011;30789;52.030;7.110;2024-02-15T04:54:09;15.95;;;7.70;;
34960;SDS011;30789;52.030;7.110;2024-02-15T04:56:38;14.73;;;7.50;;
34960;SDS011;30789;52.030;7.110;2024-02-15T04:59:05;14.80;;;7.38;;
34960;SDS011;30789;52.030;7.110;2024-02-15T05:01:35;14.32;;;8.23;;
34960;SDS011;30789;52.030;7.110;2024-02-15T05:04:02;14.27;;;7.55;;
34960;SDS011;30789;52.030;7.110;2024-02-15T05:06:32;12.55;;;7.75;;
34960;SDS011;30789;52.030;7.110;2024-02-15T05:08:59;10.43;;;7.18;;
34960;SDS011;30789;52.030;7.110;2024-02-15T05:11:26;14.95;;;7.97;;
34960;SDS011;30789;52.030;7.110;2024-02-15T05:13:54;13.40;;;7.78;;
34960;SDS011;30789;52.030;7.110;2024-02-15T05:16:20;15.48;;;7.70;;
34960;SDS011;30789;52.030;7.110;2024-02-15T05:18:50;19.75;;;8.30;;
34960;SDS011;30789;52.030;7.110;2024-02-15T05:21:18;16.10;;;8.10;;
34960;SDS011;30789;52.030;7.110;2024-02-15T05:23:45;14.52;;;7.32;;
34960;SDS011;30789;52.030;7.110;2024-02-15T05:26:11;13.82;;;8.20;;
34960;SDS011;30789;52.030;7.110;2024-02-15T05:28:41;20.10;;;9.18;;
34960;SDS011;30789;52.030;7.110;2024-02-15T05:31:11;13.65;;;8.65;;
34960;SDS011;30789;52.030;7.110;2024-02-15T05:33:41;15.30;;;8.52;;
34960;SDS011;30789;52.030;7.110;2024-02-15T05:36:10;15.23;;;8.52;;
34960;SDS011;30789;52.030;7.110;2024-02-15T05:38:39;14.00;;;8.30;;
34960;SDS011;30789;52.030;7.110;2024-02-15T05:41:06;12.73;;;7.80;;
34960;SDS011;30789;52.030;7.110;2024-02-15T05:43:33;9.65;;;6.50;;
34960;SDS011;30789;52.030;7.110;2024-02-15T05:46:01;14.35;;;7.82;;
34960;SDS011;30789;52.030;7.110;2024-02-15T05:48:28;15.57;;;7.38;;
34960;SDS011;30789;52.030;7.110;2024-02-15T05:53:28;15.77;;;7.47;;
34960;SDS011;30789;52.030;7.110;2024-02-15T05:55:55;11.85;;;7.43;;
34960;SDS011;30789;52.030;7.110;2024-02-15T05:58:24;16.95;;;9.10;;
34960;SDS011;30789;52.030;7.110;2024-02-15T06:00:54;18.75;;;8.85;;
34960;SDS011;30789;52.030;7.110;2024-02-15T06:03:27;16.77;;;8.43;;
34960;SDS011;30789;52.030;7.110;2024-02-15T06:05:57;11.40;;;6.57;;
34960;SDS011;30789;52.030;7.110;2024-02-15T06:08:24;14.85;;;6.43;;
34960;SDS011;30789;52.030;7.110;2024-02-15T06:11:02;15.20;;;5.78;;
34960;SDS011;30789;52.030;7.110;2024-02-15T06:13:30;12.18;;;5.60;;
34960;SDS011;30789;52.030;7.110;2024-02-15T06:16:00;11.05;;;5.70;;
34960;SDS011;30789;52.030;7.110;2024-02-15T06:18:27;11.82;;;5.75;;
34960;SDS011;30789;52.030;7.110;2024-02-15T06:20:56;10.90;;;5.70;;
34960;SDS011;30789;52.030;7.110;2024-02-15T06:23:24;12.90;;;5.63;;
34960;SDS011;30789;52.030;7.110;2024-02-15T06:25:56;8.98;;;5.07;;
34960;SDS011;30789;52.030;7.110;2024-02-15T06:35:27;9.63;;;4.88;;
34960;SDS011;30789;52.030;7.110;2024-02-15T06:38:26;14.23;;;4.95;;
34960;SDS011;30789;52.030;7.110;2024-02-15T06:41:13;15.25;;;5.07;;
34960;SDS011;30789;52.030;7.110;2024-02-15T06:44:31;14.65;;;5.15;;
34960;SDS011;30789;52.030;7.110;2024-02-15T06:47:07;10.80;;;4.47;;
34960;SDS011;30789;52.030;7.110;2024-02-15T06:50:30;10.85;;;4.93;;
34960;SDS011;30789;52.030;7.110;2024-02-15T06:56:35;12.07;;;5.20;;
34960;SDS011;30789;52.030;7.110;2024-02-15T06:58:56;14.85;;;5.85;;
34960;SDS011;30789;52.030;7.110;2024-02-15T07:01:32;13.32;;;5.82;;
34960;SDS011;30789;52.030;7.110;2024-02-15T07:04:00;13.13;;;5.97;;
34960;SDS011;30789;52.030;7.110;2024-02-15T07:06:30;12.20;;;6.35;;
34960;SDS011;30789;52.030;7.110;2024-02-15T07:09:00;19.85;;;6.90;;
34960;SDS011;30789;52.030;7.110;2024-02-15T07:11:31;10.68;;;5.90;;
34960;SDS011;30789;52.030;7.110;2024-02-15T07:13:59;11.55;;;6.50;;
34960;SDS011;30789;52.030;7.110;2024-02-15T07:16:26;9.77;;;6.35;;
34960;SDS011;30789;52.030;7.110;2024-02-15T07:18:56;10.68;;;6.25;;
34960;SDS011;30789;52.030;7.110;2024-02-15T07:21:23;13.10;;;6.97;;
34960;SDS011;30789;52.030;7.110;2024-02-15T07:23:53;16.55;;;6.50;;
34960;SDS011;30789;52.030;7.110;2024-02-15T07:26:24;11.50;;;5.82;;
34960;SDS011;30789;52.030;7.110;2024-02-15T07:28:51;11.65;;;6.20;;
34960;SDS011;30789;52.030;7.110;2024-02-15T07:31:19;11.25;;;6.40;;
34960;SDS011;30789;52.030;7.110;2024-02-15T07:33:46;12.60;;;6.65;;
34960;SDS011;30789;52.030;7.110;2024-02-15T07:36:14;14.27;;;6.28;;
34960;SDS011;30789;52.030;7.110;2024-02-15T07:38:48;8.90;;;6.25;;
34960;SDS011;30789;52.030;7.110;2024-02-15T07:41:17;10.15;;;6.60;;
34960;SDS011;30789;52.030;7.110;2024-02-15T07:43:47;16.55;;;6.47;;
34960;SDS011;30789;52.030;7.110;2024-02-15T07:46:14;13.93;;;6.05;;
34960;SDS011;30789;52.030;7.110;2024-02-15T07:48:41;10.43;;;6.18;;
34960;SDS011;30789;52.030;7.110;2024-02-15T07:51:14;18.75;;;6.70;;
34960;SDS011;30789;52.030;7.110;2024-02-15T07:53:46;12.18;;;5.82;;
34960;SDS011;30789;52.030;7.110;2024-02-15T07:56:13;15.93;;;6.05;;
34960;SDS011;30789;52.030;7.110;2024-02-15T07:58:49;16.05;;;5.93;;
34960;SDS011;30789;52.030;7.110;2024-02-15T08:03:05;10.65;;;6.22;;
34960;SDS011;30789;52.030;7.110;2024-02-15T08:04:17;10.77;;;6.32;;
34960;SDS011;30789;52.030;7.110;2024-02-15T08:06:46;14.40;;;7.03;;
34960;SDS011;30789;52.030;7.110;2024-02-15T08:09:18;10.15;;;5.68;;
34960;SDS011;30789;52.030;7.110;2024-02-15T08:11:51;12.93;;;6.38;;
34960;SDS011;30789;52.030;7.110;2024-02-15T08:14:25;14.75;;;6.18;;
34960;SDS011;30789;52.030;7.110;2024-02-15T08:16:55;13.07;;;6.25;;
34960;SDS011;30789;52.030;7.110;2024-02-15T08:19:33;15.63;;;6.75;;
34960;SDS011;30789;52.030;7.110;2024-02-15T08:22:21;12.07;;;5.90;;
34960;SDS011;30789;52.030;7.110;2024-02-15T08:25:00;9.90;;;5.70;;
34960;SDS011;30789;52.030;7.110;2024-02-15T08:27:36;11.20;;;6.30;;
34960;SDS011;30789;52.030;7.110;2024-02-15T08:39:07;12.75;;;5.93;;
34960;SDS011;30789;52.030;7.110;2024-02-15T08:42:00;12.38;;;5.45;;
34960;SDS011;30789;52.030;7.110;2024-02-15T08:44:35;11.45;;;5.65;;
34960;SDS011;30789;52.030;7.110;2024-02-15T08:47:08;15.27;;;5.28;;
34960;SDS011;30789;52.030;7.110;2024-02-15T08:53:17;9.65;;;5.68;;
34960;SDS011;30789;52.030;7.110;2024-02-15T09:21:05;8.15;;;5.57;;
34960;SDS011;30789;52.030;7.110;2024-02-15T09:23:34;9.68;;;5.60;;
34960;SDS011;30789;52.030;7.110;2024-02-15T09:26:04;10.57;;;6.32;;
34960;SDS011;30789;52.030;7.110;2024-02-15T09:28:36;11.52;;;6.63;;
34960;SDS011;30789;52.030;7.110;2024-02-15T09:31:03;13.77;;;6.38;;
34960;SDS011;30789;52.030;7.110;2024-02-15T09:33:33;12.50;;;5.20;;
34960;SDS011;30789;52.030;7.110;2024-02-15T09:36:09;15.13;;;6.88;;
34960;SDS011;30789;52.030;7.110;2024-02-15T09:38:39;13.63;;;7.72;;
34960;SDS011;30789;52.030;7.110;2024-02-15T09:41:13;14.73;;;7.50;;
34960;SDS011;30789;52.030;7.110;2024-02-15T09:43:54;14.70;;;7.47;;
34960;SDS011;30789;52.030;7.110;2024-02-15T09:46:33;16.55;;;7.38;;
34960;SDS011;30789;52.030;7.110;2024-02-15T09:49:04;14.15;;;7.32;;
34960;SDS011;30789;52.030;7.110;2024-02-15T09:51:47;14.07;;;7.68;;
34960;SDS011;30789;52.030;7.110;2024-02-15T09:54:18;11.18;;;7.68;;
34960;SDS011;30789;52.030;7.110;2024-02-15T09:56:47;14.82;;;7.53;;
34960;SDS011;30789;52.030;7.110;2024-02-15T09:59:25;11.05;;;6.90;;
34960;SDS011;30789;52.030;7.110;2024-02-15T10:01:59;11.38;;;6.40;;
34960;SDS011;30789;52.030;7.110;2024-02-15T10:04:50;13.10;;;8.00;;
34960;SDS011;30789;52.030;7.110;2024-02-15T10:07:28;13.95;;;8.20;;
34960;SDS011;30789;52.030;7.110;2024-02-15T10:10:02;10.05;;;6.75;;
34960;SDS011;30789;52.030;7.110;2024-02-15T10:12:46;8.93;;;7.55;;
34960;SDS011;30789;52.030;7.110;2024-02-15T10:15:29;12.68;;;7.78;;
34960;SDS011;30789;52.030;7.110;2024-02-15T10:17:57;11.40;;;8.07;;
34960;SDS011;30789;52.030;7.110;2024-02-15T10:20:27;10.25;;;7.80;;
34960;SDS011;30789;52.030;7.110;2024-02-15T10:23:08;9.60;;;7.45;;
34960;SDS011;30789;52.030;7.110;2024-02-15T10:25:36;10.35;;;7.68;;
34960;SDS011;30789;52.030;7.110;2024-02-15T10:28:06;12.98;;;7.57;;
34960;SDS011;30789;52.030;7.110;2024-02-15T10:30:43;10.70;;;7.88;;
34960;SDS011;30789;52.030;7.110;2024-02-15T10:33:26;12.95;;;7.45;;
34960;SDS011;30789;52.030;7.110;2024-02-15T10:36:04;14.00;;;8.73;;
34960;SDS011;30789;52.030;7.110;2024-02-15T10:38:36;11.48;;;8.43;;
34960;SDS011;30789;52.030;7.110;2024-02-15T10:41:07;12.30;;;8.88;;
34960;SDS011;30789;52.030;7.110;2024-02-15T10:43:43;12.68;;;8.63;;
34960;SDS011;30789;52.030;7.110;2024-02-15T10:56:41;11.50;;;6.45;;
34960;SDS011;30789;52.030;7.110;2024-02-15T10:59:24;10.82;;;6.60;;
34960;SDS011;30789;52.030;7.110;2024-02-15T11:05:16;11.18;;;6.28;;
34960;SDS011;30789;52.030;7.110;2024-02-15T11:07:50;10.10;;;6.75;;
34960;SDS011;30789;52.030;7.110;2024-02-15T11:10:20;15.20;;;7.18;;
34960;SDS011;30789;52.030;7.110;2024-02-15T11:12:51;12.57;;;7.97;;
34960;SDS011;30789;52.030;7.110;2024-02-15T11:20:50;13.68;;;7.50;;
34960;SDS011;30789;52.030;7.110;2024-02-15T11:23:27;12.13;;;6.82;;
34960;SDS011;30789;52.030;7.110;2024-02-15T11:25:55;9.38;;;6.82;;
34960;SDS011;30789;52.030;7.110;2024-02-15T11:28:39;11.20;;;7.18;;
34960;SDS011;30789;52.030;7.110;2024-02-15T11:31:10;13.43;;;6.38;;
34960;SDS011;30789;52.030;7.110;2024-02-15T11:33:58;11.43;;;6.28;;
34960;SDS011;30789;52.030;7.110;2024-02-15T11:36:56;9.23;;;5.53;;
34960;SDS011;30789;52.030;7.110;2024-02-15T11:39:39;17.70;;;6.30;;
34960;SDS011;30789;52.030;7.110;2024-02-15T11:42:25;12.30;;;5.90;;
34960;SDS011;30789;52.030;7.110;2024-02-15T11:45:05;12.15;;;6.38;;
34960;SDS011;30789;52.030;7.110;2024-02-15T11:47:36;10.70;;;6.20;;
34960;SDS011;30789;52.030;7.110;2024-02-15T11:50:12;11.63;;;6.00;;
34960;SDS011;30789;52.030;7.110;2024-02-15T11:52:40;11.75;;;5.32;;
34960;SDS011;30789;52.030;7.110;2024-02-15T11:55:08;10.50;;;5.07;;
34960;SDS011;30789;52.030;7.110;2024-02-15T11:57:38;12.70;;;5.43;;
34960;SDS011;30789;52.030;7.110;2024-02-15T12:03:13;13.02;;;5.47;;
34960;SDS011;30789;52.030;7.110;2024-02-15T12:06:01;7.45;;;4.70;;
34960;SDS011;30789;52.030;7.110;2024-02-15T12:08:45;11.00;;;4.93;;
34960;SDS011;30789;52.030;7.110;2024-02-15T12:11:41;9.32;;;4.20;;
34960;SDS011;30789;52.030;7.110;2024-02-15T12:14:51;8.82;;;4.47;;
34960;SDS011;30789;52.030;7.110;2024-02-15T12:24:34;9.65;;;4.70;;
34960;SDS011;30789;52.030;7.110;2024-02-15T12:38:02;6.20;;;3.92;;
34960;SDS011;30789;52.030;7.110;2024-02-15T12:40:33;7.60;;;3.60;;
34960;SDS011;30789;52.030;7.110;2024-02-15T12:43:24;11.60;;;3.67;;
34960;SDS011;30789;52.030;7.110;2024-02-15T12:46:32;10.05;;;3.78;;
34960;SDS011;30789;52.030;7.110;2024-02-15T13:25:53;9.63;;;2.47;;
34960;SDS011;30789;52.030;7.110;2024-02-15T13:28:24;4.95;;;2.38;;
34960;SDS011;30789;52.030;7.110;2024-02-15T14:08:01;4.05;;;2.10;;
34960;SDS011;30789;52.030;7.110;2024-02-15T14:44:18;5.75;;;2.30;;
34960;SDS011;30789;52.030;7.110;2024-02-15T14:49:57;7.85;;;2.15;;
34960;SDS011;30789;52.030;7.110;2024-02-15T14:52:39;5.13;;;1.80;;
34960;SDS011;30789;52.030;7.110;2024-02-15T14:55:21;6.30;;;2.03;;
34960;SDS011;30789;52.030;7.110;2024-02-15T14:58:09;7.93;;;2.13;;
34960;SDS011;30789;52.030;7.110;2024-02-15T15:01:03;6.25;;;1.73;;
34960;SDS011;30789;52.030;7.110;2024-02-15T15:03:47;4.05;;;2.00;;
34960;SDS011;30789;52.030;7.110;2024-02-15T15:06:29;5.70;;;1.60;;
34960;SDS011;30789;52.030;7.110;2024-02-15T15:09:22;7.85;;;1.90;;
34960;SDS011;30789;52.030;7.110;2024-02-15T15:12:11;6.55;;;3.33;;
34960;SDS011;30789;52.030;7.110;2024-02-15T15:15:01;5.32;;;2.47;;
34960;SDS011;30789;52.030;7.110;2024-02-15T15:27:31;8.70;;;2.57;;
34960;SDS011;30789;52.030;7.110;2024-02-15T15:30:01;9.38;;;2.55;;
34960;SDS011;30789;52.030;7.110;2024-02-15T15:38:40;6.78;;;2.50;;
34960;SDS011;30789;52.030;7.110;2024-02-15T15:44:37;2.42;;;1.88;;
34960;SDS011;30789;52.030;7.110;2024-02-15T15:47:06;5.85;;;1.80;;
34960;SDS011;30789;52.030;7.110;2024-02-15T15:49:35;4.82;;;2.47;;
34960;SDS011;30789;52.030;7.110;2024-02-15T15:52:11;6.22;;;2.47;;
34960;SDS011;30789;52.030;7.110;2024-02-15T16:17:59;7.80;;;3.00;;
34960;SDS011;30789;52.030;7.110;2024-02-15T16:26:48;8.02;;;3.17;;
34960;SDS011;30789;52.030;7.110;2024-02-15T17:11:13;7.60;;;4.18;;
34960;SDS011;30789;52.030;7.110;2024-02-15T17:13:44;4.70;;;3.45;;
34960;SDS011;30789;52.030;7.110;2024-02-15T17:16:13;7.72;;;3.60;;
34960;SDS011;30789;52.030;7.110;2024-02-15T17:18:41;5.50;;;3.20;;
34960;SDS011;30789;52.030;7.110;2024-02-15T17:21:07;17.83;;;10.10;;
34960;SDS011;30789;52.030;7.110;2024-02-15T17:23:34;31.73;;;15.45;;
34960;SDS011;30789;52.030;7.110;2024-02-15T17:26:03;35.88;;;17.98;;
34960;SDS011;30789;52.030;7.110;2024-02-15T17:28:32;19.65;;;10.82;;
34960;SDS011;30789;52.030;7.110;2024-02-15T17:31:00;18.50;;;11.30;;
34960;SDS011;30789;52.030;7.110;2024-02-15T17:33:32;7.40;;;5.32;;
34960;SDS011;30789;52.030;7.110;2024-02-15T17:35:59;7.40;;;3.88;;
34960;SDS011;30789;52.030;7.110;2024-02-15T17:38:31;8.40;;;5.55;;
34960;SDS011;30789;52.030;7.110;2024-02-15T17:40:59;7.35;;;5.03;;
34960;SDS011;30789;52.030;7.110;2024-02-15T17:43:29;9.02;;;3.88;;
34960;SDS011;30789;52.030;7.110;2024-02-15T17:45:59;7.13;;;4.28;;
34960;SDS011;30789;52.030;7.110;2024-02-15T17:48:28;7.60;;;4.15;;
34960;SDS011;30789;52.030;7.110;2024-02-15T17:50:57;7.03;;;4.00;;
34960;SDS011;30789;52.030;7.110;2024-02-15T17:53:25;9.15;;;5.97;;
34960;SDS011;30789;52.030;7.110;2024-02-15T17:55:54;7.30;;;4.18;;
34960;SDS011;30789;52.030;7.110;2024-02-15T17:58:24;4.53;;;2.92;;
34960;SDS011;30789;52.030;7.110;2024-02-15T18:00:53;6.40;;;3.90;;
34960;SDS011;30789;52.030;7.110;2024-02-15T18:03:20;10.18;;;5.68;;
34960;SDS011;30789;52.030;7.110;2024-02-15T18:05:49;10.45;;;5.25;;
34960;SDS011;30789;52.030;7.110;2024-02-15T18:08:15;10.93;;;5.05;;
34960;SDS011;30789;52.030;7.110;2024-02-15T18:10:43;12.05;;;6.22;;
34960;SDS011;30789;52.030;7.110;2024-02-15T18:13:11;8.70;;;5.93;;
34960;SDS011;30789;52.030;7.110;2024-02-15T18:15:39;6.00;;;4.05;;
34960;SDS011;30789;52.030;7.110;2024-02-15T18:18:11;8.52;;;3.55;;
34960;SDS011;30789;52.030;7.110;2024-02-15T18:20:38;5.60;;;3.60;;
34960;SDS011;30789;52.030;7.110;2024-02-15T18:23:06;6.80;;;4.13;;
34960;SDS011;30789;52.030;7.110;2024-02-15T18:25:36;5.65;;;3.25;;
34960;SDS011;30789;52.030;7.110;2024-02-15T18:28:04;5.95;;;2.88;;
34960;SDS011;30789;52.030;7.110;2024-02-15T18:30:34;8.77;;;2.95;;
34960;SDS011;30789;52.030;7.110;2024-02-15T18:33:09;8.57;;;3.10;;
34960;SDS011;30789;52.030;7.110;2024-02-15T18:35:39;5.25;;;2.17;;
34960;SDS011;30789;52.030;7.110;2024-02-15T18:38:09;6.75;;;2.00;;
34960;SDS011;30789;52.030;7.110;2024-02-15T18:40:39;3.85;;;1.77;;
34960;SDS011;30789;52.030;7.110;2024-02-15T18:43:07;4.85;;;1.58;;
34960;SDS011;30789;52.030;7.110;2024-02-15T18:45:34;5.15;;;1.63;;
34960;SDS011;30789;52.030;7.110;2024-02-15T18:48:02;4.28;;;1.90;;
34960;SDS011;30789;52.030;7.110;2024-02-15T18:50:31;3.97;;;1.80;;
34960;SDS011;30789;52.030;7.110;2024-02-15T18:52:59;4.10;;;1.80;;
34960;SDS011;30789;52.030;7.110;2024-02-15T18:55:26;5.13;;;1.90;;
34960;SDS011;30789;52.030;7.110;2024-02-15T18:58:01;5.18;;;1.90;;
34960;SDS011;30789;52.030;7.110;2024-02-15T19:00:27;2.95;;;2.08;;
34960;SDS011;30789;52.030;7.110;2024-02-15T19:02:58;3.03;;;2.10;;
34960;SDS011;30789;52.030;7.110;2024-02-15T19:05:26;4.85;;;2.45;;
34960;SDS011;30789;52.030;7.110;2024-02-15T19:07:54;5.00;;;2.28;;
34960;SDS011;30789;52.030;7.110;2024-02-15T19:10:21;5.90;;;2.25;;
34960;SDS011;30789;52.030;7.110;2024-02-15T19:12:48;5.47;;;2.38;;
34960;SDS011;30789;52.030;7.110;2024-02-15T19:15:16;6.30;;;2.30;;
34960;SDS011;30789;52.030;7.110;2024-02-15T19:17:43;3.72;;;2.20;;
34960;SDS011;30789;52.030;7.110;2024-02-15T19:20:10;4.28;;;2.13;;
34960;SDS011;30789;52.030;7.110;2024-02-15T19:22:37;6.43;;;2.35;;
34960;SDS011;30789;52.030;7.110;2024-02-15T19:25:09;3.45;;;2.03;;
34960;SDS011;30789;52.030;7.110;2024-02-15T19:27:42;3.53;;;2.10;;
34960;SDS011;30789;52.030;7.110;2024-02-15T19:30:10;5.35;;;2.08;;
34960;SDS011;30789;52.030;7.110;2024-02-15T19:32:38;3.72;;;1.85;;
34960;SDS011;30789;52.030;7.110;2024-02-15T19:35:04;2.65;;;1.45;;
34960;SDS011;30789;52.030;7.110;2024-02-15T19:37:32;4.30;;;2.00;;
34960;SDS011;30789;52.030;7.110;2024-02-15T19:40:00;5.18;;;1.77;;
34960;SDS011;30789;52.030;7.110;2024-02-15T19:42:30;7.22;;;2.15;;
34960;SDS011;30789;52.030;7.110;2024-02-15T19:44:57;6.45;;;2.28;;
34960;SDS011;30789;52.030;7.110;2024-02-15T19:47:24;2.28;;;1.90;;
34960;SDS011;30789;52.030;7.110;2024-02-15T19:49:51;7.00;;;1.92;;